Terminal Aerodrome Forecast
Issued by NWS Caribou, ME

Home | Current Version | Previous Version | Text Only | Print | Product List | Glossary On
Versions: 1 2 3 4 5 6 7 8 9 10 11 12 13 14 15 16 17 18 19
586
FTUS41 KCAR 140559
TAFCAR
TAF
KCAR 140559Z 1406/1506 33014KT 6SM -SHSN SCT020 BKN070
     FM140800 33013G20KT P6SM OVC070
     FM141400 29009KT P6SM SCT150=

USA.gov is the U.S. government's official web portal to all federal, state and local government web resources and services.